Crestview, FL

11:30 AM CDT on May 24, 2015 (GMT -0500)
Hurlburt | | Change Station
CLOSE
Current Station
Airport
Location: Hurlburt Field,
Elevation: 39 ft
Nearby Weather Stations

Elev 39 ft 30.43 °N, 86.69 °W | Updated 7 minutes ago

Overcast
Overcast
84 °F
Feels Like 91 °F
N
17
Wind Variable Wind from SE
Gusts 25 mph

Today
High -- | Low -- °F
--% Chance of Precip.
Yesterday
High -- | Low -- °F
Precip. -- in
5:46 AM 7:40 PM
Waxing Crescent, 40% visible
Pressure 30.18 in
Visibility 10.0 miles
Clouds Mostly Cloudy 1400 ft
Heat Index 91 °F
Dew Point 73 °F
Humidity 70%
Rainfall 0.03 in
Snow Depth Not available.
UV 7 out of 12
Pollen 5.10 out of 12
Air Quality Not available.
Flu Activity Sporadic
SPECI KHRT 241623Z AUTO 13015G22KT 10SM BKN014 29/23 A3018 RMK AO2 BKN V SCT $

More Conditions Fewer Conditions

Pressure 30.18 in
Visibility 10.0 miles
Clouds Mostly Cloudy 1400 ft
Heat Index 91 °F
Dew Point 73 °F
Humidity 70%
Rainfall 0.03 in
Snow Depth Not available.
UV 7 out of 12
Pollen 5.10 out of 12
Air Quality Not available.
Flu Activity Sporadic
SPECI KHRT 241623Z AUTO 13015G22KT 10SM BKN014 29/23 A3018 RMK AO2 BKN V SCT $

More Conditions Fewer Conditions

10-Day Weather Forecast

Almanac

Astronomy

May. 24, 2015 Rise Set
Actual Time
Civil Twilight
Nautical Twilight
Astronomical Twilight
Moon
Length of Visible Light
Length of Day
Tomorrow will be .
, % of the Moon is Illuminated

Today's Extremes

State Highs State Lows

Community

WunderPhotos

Upload Photos

1,823,777 photos uploaded!

WunderBlogs® & News

Nearby

Air Quality

  Air Quality AQ Index Pollutant
Not available.

Snow Depth

Station Depth Elevation

Earthquake Activity

City Distance Mag. Time & Date
Minimum magnitude displayed is 2.5.

Coastal Water Temperatures

Place Temperature

Stations

Nearby Weather Stations

Station Location Temp. Windchill Dew Point Humidity Wind Precip. Elev Updated Type